Time;durP1;ratioP1;P1;durP2;ratioP2;P2;SDS_P1;SDS_P2;PMS_P1;PMS_P2;Temp;Humidity;BMP_temperature;BMP_pressure;BME280_temperature;BME280_humidity;BME280_pressure;Samples;Min_cycle;Max_cycle;Signal;HPM_P1;HPM_P2
2021/07/27 00:01:08;;;;;;;6.18;4.60;;;;;;;;;;4992104;28;20074;-49
2021/07/27 00:03:37;;;;;;;6.32;4.60;;;;;;;;;;4992427;28;20039;-46
2021/07/27 00:06:04;;;;;;;6.05;4.78;;;;;;;;;;4992396;28;20046;-47
2021/07/27 00:08:35;;;;;;;7.38;5.22;;;;;;;;;;4990348;28;20042;-46
2021/07/27 00:11:03;;;;;;;6.07;4.47;;;;;;;;;;4992282;28;20043;-47
2021/07/27 00:13:29;;;;;;;6.22;5.13;;;;;;;;;;4992280;28;20046;-48
2021/07/27 00:15:56;;;;;;;7.05;4.50;;;;;;;;;;4992320;28;20056;-48
2021/07/27 00:18:23;;;;;;;5.95;4.43;;;;;;;;;;4991439;28;20050;-48
2021/07/27 00:20:50;;;;;;;6.18;4.47;;;;;;;;;;4992425;28;20477;-47
2021/07/27 00:23:17;;;;;;;5.18;4.28;;;;;;;;;;4992140;28;20134;-46
2021/07/27 00:25:44;;;;;;;6.18;4.65;;;;;;;;;;4992370;28;20077;-46
2021/07/27 00:28:11;;;;;;;6.90;4.65;;;;;;;;;;4991483;28;20050;-46
2021/07/27 00:30:37;;;;;;;7.43;4.90;;;;;;;;;;4991794;28;20049;-47
2021/07/27 00:33:04;;;;;;;7.13;4.45;;;;;;;;;;4992087;28;20122;-44
2021/07/27 00:35:32;;;;;;;6.22;4.90;;;;;;;;;;4994693;28;20070;-48
2021/07/27 00:40:44;;;;;;;5.85;4.70;;;;;;;;;;4995804;28;20133;-47
2021/07/27 00:43:12;;;;;;;7.32;4.32;;;;;;;;;;4995581;28;20066;-45
2021/07/27 00:45:39;;;;;;;6.45;4.35;;;;;;;;;;4995598;28;20480;-46
2021/07/27 00:48:06;;;;;;;9.63;4.70;;;;;;;;;;4995195;28;20069;-45
2021/07/27 00:50:33;;;;;;;5.40;4.50;;;;;;;;;;4995614;28;20066;-44
2021/07/27 00:53:01;;;;;;;6.05;4.53;;;;;;;;;;4995458;28;20085;-45
2021/07/27 00:55:28;;;;;;;5.68;4.38;;;;;;;;;;4995258;28;20129;-45
2021/07/27 00:57:55;;;;;;;7.43;5.03;;;;;;;;;;4995379;28;20133;-47
2021/07/27 01:00:26;;;;;;;6.53;4.47;;;;;;;;;;4995266;28;20354;-45
2021/07/27 01:02:53;;;;;;;5.00;4.32;;;;;;;;;;4995462;28;20112;-46
2021/07/27 01:05:20;;;;;;;7.40;4.72;;;;;;;;;;4995968;28;20045;-48
2021/07/27 01:07:46;;;;;;;6.75;4.60;;;;;;;;;;4996345;28;20053;-42
2021/07/27 01:10:14;;;;;;;8.38;5.18;;;;;;;;;;4995784;28;20084;-43
2021/07/27 01:12:41;;;;;;;7.07;4.63;;;;;;;;;;4995387;28;20466;-45
2021/07/27 01:15:09;;;;;;;7.95;4.82;;;;;;;;;;4995518;28;20534;-46
2021/07/27 01:17:36;;;;;;;7.57;4.50;;;;;;;;;;4995026;28;20401;-45
2021/07/27 01:44:44;;;;;;;5.32;3.90;;;;;;;;;;4994110;28;20129;-44
2021/07/27 01:47:20;;;;;;;7.10;4.25;;;;;;;;;;4994515;28;20038;-43
2021/07/27 01:49:48;;;;;;;7.32;4.63;;;;;;;;;;4993789;28;20039;-43
2021/07/27 01:52:16;;;;;;;5.93;4.45;;;;;;;;;;4994522;28;20042;-44
2021/07/27 01:54:52;;;;;;;7.25;4.22;;;;;;;;;;4994864;28;20055;-43
2021/07/27 01:57:19;;;;;;;5.90;5.00;;;;;;;;;;5013843;28;20387;-46
2021/07/27 01:59:57;;;;;;;6.05;4.78;;;;;;;;;;5005615;28;20084;-43
2021/07/27 02:02:24;;;;;;;7.32;4.55;;;;;;;;;;4993311;28;20451;-44
2021/07/27 02:04:52;;;;;;;7.15;4.85;;;;;;;;;;4994298;28;20392;-43
2021/07/27 02:07:19;;;;;;;5.70;4.57;;;;;;;;;;4992989;28;20035;-47
2021/07/27 02:09:47;;;;;;;6.63;4.03;;;;;;;;;;4993459;28;20416;-43
2021/07/27 02:12:19;;;;;;;5.53;3.67;;;;;;;;;;4993098;28;20492;-44
2021/07/27 02:15:04;;;;;;;6.43;4.60;;;;;;;;;;4994056;28;20133;-44
2021/07/27 02:17:31;;;;;;;5.45;4.45;;;;;;;;;;4993960;28;20050;-43
2021/07/27 02:20:00;;;;;;;8.32;5.22;;;;;;;;;;4993394;28;20112;-43
2021/07/27 02:22:26;;;;;;;6.25;4.18;;;;;;;;;;4994136;28;20460;-44
2021/07/27 02:24:53;;;;;;;5.40;4.25;;;;;;;;;;4993476;28;20538;-44
2021/07/27 02:27:20;;;;;;;4.05;3.38;;;;;;;;;;4993672;28;20054;-44
2021/07/27 02:29:47;;;;;;;6.07;4.22;;;;;;;;;;4992826;28;20042;-44
2021/07/27 02:32:14;;;;;;;5.40;4.20;;;;;;;;;;4993555;28;20555;-48
2021/07/27 02:34:40;;;;;;;6.55;4.68;;;;;;;;;;4993810;28;20058;-44
2021/07/27 02:37:07;;;;;;;7.97;4.85;;;;;;;;;;4993377;28;20125;-43
2021/07/27 02:39:34;;;;;;;6.30;4.10;;;;;;;;;;4993012;28;20046;-44
2021/07/27 02:42:00;;;;;;;6.70;4.97;;;;;;;;;;4993434;28;20137;-44
2021/07/27 02:44:27;;;;;;;5.43;4.40;;;;;;;;;;4993437;28;20077;-44
2021/07/27 02:46:54;;;;;;;6.38;4.97;;;;;;;;;;4993386;28;20109;-43
2021/07/27 02:49:21;;;;;;;7.03;4.65;;;;;;;;;;4991585;28;20499;-44
2021/07/27 02:51:48;;;;;;;7.95;4.00;;;;;;;;;;4993173;28;20069;-43
2021/07/27 02:54:16;;;;;;;7.57;4.90;;;;;;;;;;4992055;28;20054;-43
2021/07/27 02:56:42;;;;;;;7.18;5.07;;;;;;;;;;4992713;28;20038;-43
2021/07/27 02:59:09;;;;;;;8.82;4.53;;;;;;;;;;4992009;28;20053;-44
2021/07/27 03:01:36;;;;;;;6.50;4.43;;;;;;;;;;4993159;28;20077;-44
2021/07/27 03:04:03;;;;;;;5.60;4.47;;;;;;;;;;4993144;28;20539;-49
2021/07/27 03:06:31;;;;;;;5.60;4.13;;;;;;;;;;4993156;28;20506;-44
2021/07/27 03:11:25;;;;;;;6.47;4.57;;;;;;;;;;4993429;28;20130;-45
2021/07/27 03:13:52;;;;;;;7.82;5.03;;;;;;;;;;4993324;28;20031;-43
2021/07/27 03:16:20;;;;;;;5.50;4.50;;;;;;;;;;4992718;28;20061;-44
2021/07/27 03:18:51;;;;;;;6.18;4.70;;;;;;;;;;4992214;28;20496;-44
2021/07/27 03:21:21;;;;;;;7.47;5.27;;;;;;;;;;4993017;28;20092;-46
2021/07/27 03:23:48;;;;;;;8.48;5.05;;;;;;;;;;4992623;28;20582;-46
2021/07/27 03:26:15;;;;;;;5.28;4.28;;;;;;;;;;4992628;28;20129;-43
2021/07/27 03:28:42;;;;;;;9.15;4.50;;;;;;;;;;4990856;28;20039;-45
2021/07/27 03:31:09;;;;;;;6.00;4.60;;;;;;;;;;4992478;28;20110;-43
2021/07/27 03:33:36;;;;;;;5.85;4.22;;;;;;;;;;4992372;28;20074;-46
2021/07/27 03:36:04;;;;;;;5.50;4.13;;;;;;;;;;4991519;28;20420;-43
2021/07/27 03:38:31;;;;;;;7.18;4.60;;;;;;;;;;4991616;28;20049;-42
2021/07/27 03:41:01;;;;;;;6.13;4.38;;;;;;;;;;4992374;28;20518;-45
2021/07/27 03:43:28;;;;;;;7.47;4.80;;;;;;;;;;4992608;28;20080;-45
2021/07/27 03:45:54;;;;;;;6.55;5.00;;;;;;;;;;4992421;28;20049;-47
2021/07/27 03:48:21;;;;;;;6.30;5.07;;;;;;;;;;4991533;28;20106;-44
2021/07/27 03:50:48;;;;;;;7.75;4.90;;;;;;;;;;4992526;28;20428;-44
2021/07/27 03:53:16;;;;;;;6.18;4.97;;;;;;;;;;4992181;28;20042;-46
2021/07/27 03:55:43;;;;;;;8.40;5.35;;;;;;;;;;4992180;28;20046;-47
2021/07/27 03:58:10;;;;;;;7.95;4.93;;;;;;;;;;4991742;28;20081;-52
2021/07/27 04:00:36;;;;;;;9.48;4.40;;;;;;;;;;4992310;28;20053;-46
2021/07/27 04:03:04;;;;;;;6.82;4.72;;;;;;;;;;4992644;28;20054;-46
2021/07/27 04:05:34;;;;;;;7.55;4.68;;;;;;;;;;4992167;28;20546;-45
2021/07/27 04:08:01;;;;;;;8.18;4.72;;;;;;;;;;4991680;28;20514;-45
2021/07/27 04:10:28;;;;;;;7.85;5.10;;;;;;;;;;4994595;28;20045;-46
2021/07/27 04:12:55;;;;;;;9.45;5.65;;;;;;;;;;4996437;28;20476;-47
2021/07/27 04:15:24;;;;;;;6.45;5.63;;;;;;;;;;4996228;28;20065;-48
2021/07/27 04:17:51;;;;;;;7.38;5.03;;;;;;;;;;4996083;28;20073;-46
2021/07/27 04:20:18;;;;;;;6.38;4.88;;;;;;;;;;4995544;28;20046;-47
2021/07/27 04:22:45;;;;;;;7.97;4.70;;;;;;;;;;4996388;28;20081;-45
2021/07/27 04:25:12;;;;;;;8.80;5.15;;;;;;;;;;4996061;28;20407;-47
2021/07/27 04:27:39;;;;;;;7.82;5.07;;;;;;;;;;4995460;28;20045;-46
2021/07/27 04:30:06;;;;;;;6.57;5.10;;;;;;;;;;4995417;28;20133;-45
2021/07/27 04:32:33;;;;;;;5.43;4.75;;;;;;;;;;4995665;28;20042;-45
2021/07/27 04:35:00;;;;;;;8.43;5.95;;;;;;;;;;4994829;28;20077;-44
2021/07/27 04:37:27;;;;;;;7.25;5.20;;;;;;;;;;4994632;28;20046;-45
2021/07/27 04:39:54;;;;;;;6.80;4.97;;;;;;;;;;4995053;28;20057;-43
2021/07/27 04:42:21;;;;;;;7.88;4.53;;;;;;;;;;4995671;28;20133;-43
2021/07/27 04:44:48;;;;;;;6.65;4.70;;;;;;;;;;4995798;28;20077;-47
2021/07/27 04:47:15;;;;;;;8.25;5.25;;;;;;;;;;4995295;28;20046;-48
2021/07/27 04:49:43;;;;;;;5.47;4.30;;;;;;;;;;4995035;28;20055;-46
2021/07/27 04:52:12;;;;;;;10.38;5.28;;;;;;;;;;4995455;28;20064;-45
2021/07/27 04:54:50;;;;;;;7.68;5.13;;;;;;;;;;4995628;28;20073;-48
2021/07/27 04:57:17;;;;;;;7.25;5.07;;;;;;;;;;4995697;28;20065;-45
2021/07/27 04:59:44;;;;;;;6.18;4.55;;;;;;;;;;4994590;28;20078;-43
2021/07/27 05:02:11;;;;;;;5.80;4.85;;;;;;;;;;4995506;28;20129;-47
2021/07/27 05:04:38;;;;;;;8.32;5.25;;;;;;;;;;4994570;28;20377;-47
2021/07/27 05:07:05;;;;;;;6.53;4.57;;;;;;;;;;4995591;28;20070;-46
2021/07/27 05:09:32;;;;;;;6.60;4.93;;;;;;;;;;5014258;28;20133;-47
2021/07/27 05:11:58;;;;;;;6.43;5.18;;;;;;;;;;5014036;28;20033;-47
2021/07/27 05:14:25;;;;;;;11.95;5.38;;;;;;;;;;5015063;28;20068;-47
2021/07/27 05:16:52;;;;;;;7.75;5.43;;;;;;;;;;5015014;28;20553;-47
2021/07/27 05:19:19;;;;;;;7.22;4.78;;;;;;;;;;5014567;28;20084;-46
2021/07/27 05:21:46;;;;;;;9.23;5.45;;;;;;;;;;5014505;28;20050;-46
2021/07/27 05:24:12;;;;;;;6.30;4.60;;;;;;;;;;5009648;28;20564;-44
2021/07/27 05:26:39;;;;;;;5.55;4.13;;;;;;;;;;4995250;28;20488;-47
2021/07/27 05:29:06;;;;;;;5.00;3.83;;;;;;;;;;4994233;28;20122;-46
2021/07/27 05:31:33;;;;;;;6.10;4.43;;;;;;;;;;4994714;28;20048;-46
2021/07/27 05:34:00;;;;;;;6.68;4.10;;;;;;;;;;4995036;28;20122;-48
2021/07/27 05:36:27;;;;;;;5.05;3.80;;;;;;;;;;4995073;28;20042;-49
2021/07/27 05:38:54;;;;;;;5.13;3.80;;;;;;;;;;4993960;28;20054;-47
2021/07/27 05:41:21;;;;;;;6.70;4.15;;;;;;;;;;4995097;28;20054;-47
2021/07/27 05:43:47;;;;;;;7.50;4.90;;;;;;;;;;4995052;28;20134;-46
2021/07/27 05:46:14;;;;;;;7.30;4.78;;;;;;;;;;4994933;28;20407;-47
2021/07/27 05:48:43;;;;;;;5.50;4.45;;;;;;;;;;5004134;28;20403;-47
2021/07/27 05:51:10;;;;;;;5.63;3.78;;;;;;;;;;5014255;28;20125;-47
2021/07/27 05:53:37;;;;;;;7.30;4.28;;;;;;;;;;5014355;28;20046;-46
2021/07/27 05:56:04;;;;;;;8.82;4.43;;;;;;;;;;5012906;28;20080;-46
2021/07/27 05:58:30;;;;;;;6.57;4.50;;;;;;;;;;5001835;28;20070;-47
2021/07/27 06:00:57;;;;;;;6.35;3.75;;;;;;;;;;5010937;28;20073;-46
2021/07/27 06:03:24;;;;;;;7.70;4.43;;;;;;;;;;5014296;28;20042;-47
2021/07/27 06:05:51;;;;;;;9.25;4.68;;;;;;;;;;5014336;28;20133;-48
2021/07/27 06:08:18;;;;;;;6.90;4.25;;;;;;;;;;5013264;28;20048;-48
2021/07/27 06:10:45;;;;;;;7.50;4.18;;;;;;;;;;5016407;28;20555;-46
2021/07/27 06:13:11;;;;;;;6.07;4.38;;;;;;;;;;5013897;28;20126;-48
2021/07/27 06:15:38;;;;;;;5.53;4.22;;;;;;;;;;5013965;28;20096;-45
2021/07/27 06:18:05;;;;;;;6.00;3.72;;;;;;;;;;4995569;28;20045;-44
2021/07/27 06:20:32;;;;;;;5.70;3.92;;;;;;;;;;4994011;28;20129;-46
2021/07/27 06:22:58;;;;;;;5.85;4.03;;;;;;;;;;4994084;28;20047;-47
2021/07/27 06:25:25;;;;;;;5.00;3.95;;;;;;;;;;4993805;28;20125;-45
2021/07/27 06:27:52;;;;;;;6.85;3.92;;;;;;;;;;4993728;28;20093;-44
2021/07/27 06:30:18;;;;;;;6.90;4.30;;;;;;;;;;4993048;28;20508;-46
2021/07/27 06:32:45;;;;;;;7.57;3.88;;;;;;;;;;4993024;28;20121;-44
2021/07/27 06:35:14;;;;;;;6.07;4.25;;;;;;;;;;4992627;28;20076;-44
2021/07/27 06:37:41;;;;;;;5.35;3.63;;;;;;;;;;4993627;28;20042;-47
2021/07/27 06:40:08;;;;;;;7.85;4.15;;;;;;;;;;4993359;28;20056;-44
2021/07/27 06:42:34;;;;;;;6.25;4.47;;;;;;;;;;4993825;28;20453;-45
2021/07/27 06:45:01;;;;;;;6.07;3.90;;;;;;;;;;4993383;28;20052;-47
2021/07/27 06:47:28;;;;;;;5.88;4.10;;;;;;;;;;4993319;28;20089;-47
2021/07/27 06:49:55;;;;;;;7.15;4.22;;;;;;;;;;4993306;28;20089;-45
2021/07/27 06:52:22;;;;;;;6.55;4.72;;;;;;;;;;4993276;28;20117;-47
2021/07/27 06:54:49;;;;;;;5.68;4.15;;;;;;;;;;4993327;28;20407;-45
2021/07/27 06:57:16;;;;;;;7.30;4.90;;;;;;;;;;4993225;28;20050;-45
2021/07/27 06:59:43;;;;;;;6.55;3.85;;;;;;;;;;4992287;28;20499;-44
2021/07/27 07:02:09;;;;;;;6.70;4.03;;;;;;;;;;4993092;28;20146;-46
2021/07/27 07:04:36;;;;;;;5.90;4.70;;;;;;;;;;4993273;28;20046;-45
2021/07/27 07:07:06;;;;;;;5.45;3.95;;;;;;;;;;4993075;28;20568;-43
2021/07/27 07:09:33;;;;;;;11.88;4.03;;;;;;;;;;4994015;28;20443;-44
2021/07/27 07:12:00;;;;;;;5.10;4.07;;;;;;;;;;4993228;28;20051;-45
2021/07/27 07:14:26;;;;;;;6.65;4.13;;;;;;;;;;4992951;28;20053;-47
2021/07/27 07:16:53;;;;;;;7.20;4.05;;;;;;;;;;4993080;28;20058;-45
2021/07/27 07:19:20;;;;;;;5.40;3.60;;;;;;;;;;5005258;28;20064;-44
2021/07/27 07:21:48;;;;;;;6.15;4.15;;;;;;;;;;4991744;28;20065;-46
2021/07/27 07:24:15;;;;;;;6.10;4.30;;;;;;;;;;4992872;28;20129;-47
2021/07/27 07:26:41;;;;;;;6.07;4.45;;;;;;;;;;4992246;28;20157;-46
2021/07/27 07:29:08;;;;;;;6.50;4.10;;;;;;;;;;4991986;28;20042;-45
2021/07/27 07:31:35;;;;;;;6.72;4.30;;;;;;;;;;4992574;28;20057;-48
2021/07/27 07:34:02;;;;;;;6.20;4.30;;;;;;;;;;4992454;28;20073;-45
2021/07/27 07:36:28;;;;;;;4.78;3.83;;;;;;;;;;4992637;28;20050;-45
2021/07/27 07:38:55;;;;;;;5.30;4.03;;;;;;;;;;4991585;28;20043;-46
2021/07/27 07:41:24;;;;;;;6.90;3.97;;;;;;;;;;4992326;28;20510;-46
2021/07/27 07:43:50;;;;;;;6.88;3.65;;;;;;;;;;4992326;28;20477;-45
2021/07/27 07:46:17;;;;;;;8.23;4.50;;;;;;;;;;4992358;28;20042;-45
2021/07/27 07:48:44;;;;;;;5.28;4.10;;;;;;;;;;4991539;28;20481;-44
2021/07/27 07:51:11;;;;;;;7.72;3.83;;;;;;;;;;4992352;28;20045;-46
2021/07/27 07:53:38;;;;;;;7.22;4.60;;;;;;;;;;4992511;28;20129;-48
2021/07/27 07:56:09;;;;;;;5.63;3.83;;;;;;;;;;4992388;28;20046;-45
2021/07/27 07:58:36;;;;;;;4.95;3.97;;;;;;;;;;4991700;28;20130;-46
2021/07/27 08:01:06;;;;;;;7.00;4.22;;;;;;;;;;4991978;28;20501;-45
2021/07/27 08:03:33;;;;;;;8.55;4.53;;;;;;;;;;4992342;28;20496;-43
2021/07/27 08:05:59;;;;;;;5.72;4.30;;;;;;;;;;4992137;28;20042;-44
2021/07/27 08:08:26;;;;;;;6.85;4.40;;;;;;;;;;4991583;28;20049;-45
2021/07/27 08:10:54;;;;;;;5.57;4.28;;;;;;;;;;4991989;28;20042;-43
2021/07/27 08:13:20;;;;;;;7.20;4.85;;;;;;;;;;4992120;28;20050;-45
2021/07/27 08:15:49;;;;;;;9.45;4.70;;;;;;;;;;4992352;28;20050;-44
2021/07/27 08:18:19;;;;;;;7.50;4.50;;;;;;;;;;4991115;28;20141;-45
2021/07/27 08:20:46;;;;;;;5.40;3.97;;;;;;;;;;4992338;28;20452;-44
2021/07/27 08:23:12;;;;;;;4.93;4.18;;;;;;;;;;4992062;28;20085;-43
2021/07/27 08:25:39;;;;;;;9.15;4.80;;;;;;;;;;4992058;28;20046;-44
2021/07/27 08:28:06;;;;;;;8.75;4.78;;;;;;;;;;4991304;28;20404;-47
2021/07/27 08:30:33;;;;;;;6.28;4.18;;;;;;;;;;4992070;28;20038;-49
2021/07/27 08:33:00;;;;;;;6.47;4.53;;;;;;;;;;4991823;28;20547;-46
2021/07/27 08:35:27;;;;;;;5.43;4.18;;;;;;;;;;4992023;28;20092;-44
2021/07/27 08:37:53;;;;;;;5.97;4.05;;;;;;;;;;4991766;28;20070;-47
2021/07/27 08:40:22;;;;;;;7.32;4.00;;;;;;;;;;4991309;28;20137;-43
2021/07/27 08:42:49;;;;;;;6.95;4.97;;;;;;;;;;4991867;28;20359;-46
2021/07/27 08:45:16;;;;;;;7.20;4.63;;;;;;;;;;4991979;28;20129;-46
2021/07/27 08:47:44;;;;;;;7.13;4.88;;;;;;;;;;4991783;28;20111;-45
2021/07/27 08:50:11;;;;;;;9.85;4.93;;;;;;;;;;4990965;28;20137;-45
2021/07/27 08:52:38;;;;;;;8.07;4.75;;;;;;;;;;4991798;28;20108;-47
2021/07/27 08:55:05;;;;;;;6.03;4.45;;;;;;;;;;4990716;28;20120;-46
2021/07/27 08:57:32;;;;;;;4.95;4.30;;;;;;;;;;4995267;28;20050;-46
2021/07/27 08:59:59;;;;;;;14.32;4.85;;;;;;;;;;4994532;28;20046;-47
2021/07/27 09:02:26;;;;;;;5.88;4.28;;;;;;;;;;4995243;28;20042;-44
2021/07/27 09:05:05;;;;;;;6.55;4.40;;;;;;;;;;4995195;28;20046;-46
2021/07/27 09:07:32;;;;;;;5.70;4.38;;;;;;;;;;4995169;28;20121;-49
2021/07/27 09:10:10;;;;;;;7.50;4.43;;;;;;;;;;4994316;28;20081;-49
2021/07/27 09:12:37;;;;;;;7.32;4.28;;;;;;;;;;4995179;28;20110;-44
2021/07/27 09:15:05;;;;;;;6.53;4.30;;;;;;;;;;4995329;28;20129;-45
2021/07/27 09:17:32;;;;;;;8.30;4.13;;;;;;;;;;4995048;28;20325;-45
2021/07/27 09:19:59;;;;;;;7.97;4.72;;;;;;;;;;4994505;28;20057;-45
2021/07/27 09:22:26;;;;;;;6.90;4.45;;;;;;;;;;4994827;28;20130;-47
2021/07/27 09:25:02;;;;;;;6.82;4.28;;;;;;;;;;4994884;28;20128;-44
2021/07/27 09:27:29;;;;;;;6.57;4.40;;;;;;;;;;4994116;28;20050;-46
2021/07/27 09:29:55;;;;;;;8.70;4.43;;;;;;;;;;4994334;28;20049;-49
2021/07/27 09:32:22;;;;;;;6.25;4.10;;;;;;;;;;4994921;28;20043;-45
2021/07/27 09:34:50;;;;;;;7.50;4.18;;;;;;;;;;4995042;28;20438;-46
2021/07/27 09:37:25;;;;;;;5.03;3.92;;;;;;;;;;4994899;28;20082;-47
2021/07/27 09:39:52;;;;;;;6.75;4.57;;;;;;;;;;4993978;28;20051;-46
2021/07/27 09:42:19;;;;;;;5.60;4.30;;;;;;;;;;4993477;28;20082;-46
2021/07/27 09:44:48;;;;;;;5.80;3.88;;;;;;;;;;4993518;28;20145;-45
2021/07/27 09:47:14;;;;;;;7.65;4.65;;;;;;;;;;4994434;28;20043;-46
2021/07/27 09:49:42;;;;;;;7.60;4.53;;;;;;;;;;4993935;28;20045;-46
2021/07/27 09:52:10;;;;;;;8.00;4.53;;;;;;;;;;4994437;28;20054;-46
2021/07/27 09:54:37;;;;;;;6.28;4.72;;;;;;;;;;4994568;28;20467;-49
2021/07/27 09:57:04;;;;;;;6.38;4.72;;;;;;;;;;4994318;28;20506;-47
2021/07/27 09:59:31;;;;;;;6.18;4.75;;;;;;;;;;4994174;28;20050;-47
2021/07/27 10:02:04;;;;;;;6.85;4.25;;;;;;;;;;4994382;28;20420;-45
2021/07/27 10:04:34;;;;;;;7.25;4.75;;;;;;;;;;4994446;28;20100;-46
2021/07/27 10:07:01;;;;;;;5.30;4.18;;;;;;;;;;4993081;28;20070;-45
2021/07/27 10:09:31;;;;;;;6.63;4.35;;;;;;;;;;4993530;28;20203;-46
2021/07/27 10:12:05;;;;;;;5.80;4.25;;;;;;;;;;4994247;28;20046;-44
2021/07/27 10:14:42;;;;;;;6.45;4.40;;;;;;;;;;4994323;28;20496;-45
2021/07/27 10:17:09;;;;;;;6.97;4.30;;;;;;;;;;4994168;28;20480;-48
2021/07/27 10:19:40;;;;;;;5.97;4.15;;;;;;;;;;4993538;28;20058;-46
2021/07/27 10:22:08;;;;;;;5.53;4.13;;;;;;;;;;4994546;28;20132;-46
2021/07/27 10:24:36;;;;;;;6.90;4.40;;;;;;;;;;4993610;28;20484;-49
2021/07/27 10:27:07;;;;;;;7.57;4.43;;;;;;;;;;4993576;28;20050;-47
2021/07/27 10:29:34;;;;;;;6.80;4.53;;;;;;;;;;4993918;28;20097;-48
2021/07/27 10:32:10;;;;;;;6.50;4.60;;;;;;;;;;4993686;28;20046;-48
2021/07/27 10:34:40;;;;;;;5.75;4.15;;;;;;;;;;4992563;28;20142;-50
2021/07/27 10:37:10;;;;;;;5.97;4.10;;;;;;;;;;4993759;28;20077;-49
2021/07/27 10:39:52;;;;;;;6.93;4.75;;;;;;;;;;4993358;28;20047;-49
2021/07/27 10:42:20;;;;;;;6.68;4.28;;;;;;;;;;4993651;28;20053;-48
2021/07/27 10:44:48;;;;;;;5.82;4.40;;;;;;;;;;4993395;28;20046;-47
2021/07/27 10:47:20;;;;;;;5.63;4.05;;;;;;;;;;4993640;28;20034;-48
2021/07/27 10:50:08;;;;;;;5.88;4.25;;;;;;;;;;4993216;28;20070;-47
2021/07/27 10:52:41;;;;;;;5.85;4.32;;;;;;;;;;4993475;28;20201;-49
2021/07/27 10:55:09;;;;;;;6.05;3.67;;;;;;;;;;4993067;28;20129;-50
2021/07/27 10:57:48;;;;;;;5.53;3.90;;;;;;;;;;4993021;28;20137;-48
2021/07/27 11:00:15;;;;;;;6.32;3.60;;;;;;;;;;4992054;28;20137;-49
2021/07/27 11:02:42;;;;;;;5.13;3.60;;;;;;;;;;4991933;28;20053;-47
2021/07/27 11:05:11;;;;;;;5.57;4.38;;;;;;;;;;4992999;28;20047;-47
2021/07/27 11:07:38;;;;;;;8.10;4.40;;;;;;;;;;4992933;28;20129;-48
2021/07/27 11:10:05;;;;;;;6.75;3.63;;;;;;;;;;4993344;28;20183;-47
2021/07/27 11:12:32;;;;;;;5.15;4.00;;;;;;;;;;4993009;28;20038;-45
2021/07/27 11:15:06;;;;;;;6.32;3.63;;;;;;;;;;4993143;28;20419;-46
2021/07/27 11:17:33;;;;;;;7.15;4.13;;;;;;;;;;4993252;28;20240;-49
2021/07/27 11:20:00;;;;;;;4.97;3.63;;;;;;;;;;4992129;28;20050;-46
2021/07/27 11:22:27;;;;;;;6.15;4.00;;;;;;;;;;4992435;28;20046;-48
2021/07/27 11:24:55;;;;;;;6.63;3.90;;;;;;;;;;4992707;28;20132;-48
2021/07/27 11:27:32;;;;;;;7.45;3.85;;;;;;;;;;4992400;28;20125;-47
2021/07/27 11:29:59;;;;;;;5.13;3.85;;;;;;;;;;4991918;28;20452;-47
2021/07/27 11:32:37;;;;;;;5.18;3.90;;;;;;;;;;4992483;28;20046;-48
2021/07/27 11:35:04;;;;;;;5.22;3.88;;;;;;;;;;4992847;28;20049;-48
2021/07/27 11:37:31;;;;;;;7.60;3.80;;;;;;;;;;4993335;28;20050;-51
2021/07/27 11:39:58;;;;;;;6.55;4.20;;;;;;;;;;4998981;28;20046;-49
2021/07/27 11:42:32;;;;;;;7.93;4.20;;;;;;;;;;5031037;23;20133;-50
2021/07/27 11:45:04;;;;;;;4.43;3.35;;;;;;;;;;5031239;28;20046;-49
2021/07/27 11:47:41;;;;;;;7.38;4.13;;;;;;;;;;5031221;28;20080;-53
2021/07/27 11:50:28;;;;;;;6.32;4.10;;;;;;;;;;5016461;28;20415;-48
2021/07/27 11:52:56;;;;;;;8.77;3.92;;;;;;;;;;5011258;28;20364;-53
2021/07/27 11:55:27;;;;;;;5.95;3.95;;;;;;;;;;5011419;28;20125;-48
2021/07/27 11:57:54;;;;;;;6.70;3.65;;;;;;;;;;5011395;28;20054;-50
2021/07/27 12:00:21;;;;;;;6.50;3.80;;;;;;;;;;5010933;28;20049;-50
2021/07/27 12:02:47;;;;;;;5.20;3.67;;;;;;;;;;5011294;28;20038;-53
2021/07/27 12:05:15;;;;;;;5.15;4.20;;;;;;;;;;5011270;28;20137;-50
2021/07/27 12:07:41;;;;;;;5.28;4.05;;;;;;;;;;5011349;28;20049;-53
2021/07/27 12:10:08;;;;;;;5.53;3.85;;;;;;;;;;5009167;28;20068;-49
2021/07/27 12:12:37;;;;;;;7.00;4.20;;;;;;;;;;5009702;28;20057;-50
2021/07/27 12:15:05;;;;;;;6.50;4.00;;;;;;;;;;5011390;28;20128;-51
2021/07/27 12:17:32;;;;;;;5.82;3.92;;;;;;;;;;5011371;28;20042;-51
2021/07/27 12:19:58;;;;;;;8.07;3.78;;;;;;;;;;5010643;28;20041;-53
2021/07/27 12:22:25;;;;;;;6.50;4.15;;;;;;;;;;5009861;28;20136;-56
2021/07/27 12:24:52;;;;;;;6.38;4.05;;;;;;;;;;5011064;28;20107;-51
2021/07/27 12:27:19;;;;;;;4.65;3.70;;;;;;;;;;5010768;28;20046;-53
2021/07/27 12:29:46;;;;;;;7.63;4.15;;;;;;;;;;5010029;28;20050;-53
2021/07/27 12:32:13;;;;;;;6.70;4.53;;;;;;;;;;5014848;28;20124;-53
2021/07/27 12:34:39;;;;;;;6.10;3.58;;;;;;;;;;5015055;28;20102;-54
2021/07/27 12:37:09;;;;;;;4.57;3.20;;;;;;;;;;5015188;28;20061;-49
2021/07/27 12:39:36;;;;;;;4.70;3.38;;;;;;;;;;5013806;28;20050;-51
2021/07/27 12:42:02;;;;;;;5.65;3.63;;;;;;;;;;5014960;28;20145;-51
2021/07/27 12:44:29;;;;;;;4.80;3.22;;;;;;;;;;5013467;28;20497;-49
2021/07/27 12:46:57;;;;;;;4.25;3.20;;;;;;;;;;5014737;28;20049;-50
2021/07/27 12:49:24;;;;;;;5.63;3.28;;;;;;;;;;5013764;28;20049;-47
2021/07/27 12:51:50;;;;;;;3.85;3.00;;;;;;;;;;5014529;28;20064;-50
2021/07/27 12:54:17;;;;;;;5.22;3.40;;;;;;;;;;5013316;28;20132;-49
2021/07/27 12:56:44;;;;;;;4.30;3.40;;;;;;;;;;5014209;28;20041;-47
2021/07/27 12:59:10;;;;;;;7.78;3.28;;;;;;;;;;5013479;28;20038;-51
2021/07/27 13:01:37;;;;;;;5.65;3.60;;;;;;;;;;5014412;28;20491;-51
2021/07/27 13:04:04;;;;;;;6.32;3.45;;;;;;;;;;5013658;28;20065;-50
2021/07/27 13:06:35;;;;;;;4.40;3.22;;;;;;;;;;5015657;28;20038;-53
2021/07/27 13:09:02;;;;;;;5.70;3.38;;;;;;;;;;5013698;28;20038;-49
2021/07/27 13:11:31;;;;;;;5.60;3.85;;;;;;;;;;5014280;28;20044;-51
2021/07/27 13:13:58;;;;;;;5.82;3.70;;;;;;;;;;5014086;28;20479;-51
2021/07/27 13:16:25;;;;;;;5.03;3.60;;;;;;;;;;5013930;28;20072;-51
2021/07/27 13:18:52;;;;;;;4.47;3.40;;;;;;;;;;5013641;28;20050;-47
2021/07/27 13:21:19;;;;;;;4.43;3.80;;;;;;;;;;5013948;28;20089;-48
2021/07/27 13:23:46;;;;;;;5.45;3.60;;;;;;;;;;5014109;28;20121;-50
2021/07/27 13:26:13;;;;;;;4.82;3.40;;;;;;;;;;5013734;28;20143;-51
2021/07/27 13:28:41;;;;;;;4.47;3.22;;;;;;;;;;5012978;28;20048;-53
2021/07/27 13:31:08;;;;;;;5.30;3.60;;;;;;;;;;5013726;28;20069;-50
2021/07/27 13:33:35;;;;;;;4.70;3.67;;;;;;;;;;5013794;28;20422;-50
2021/07/27 13:36:02;;;;;;;6.07;3.60;;;;;;;;;;5013805;28;20041;-50
2021/07/27 13:38:28;;;;;;;5.35;3.70;;;;;;;;;;5012784;28;20042;-49
2021/07/27 13:40:55;;;;;;;4.43;3.25;;;;;;;;;;5011980;28;20053;-50
2021/07/27 13:43:22;;;;;;;7.72;3.58;;;;;;;;;;5013241;28;20049;-51
2021/07/27 13:45:49;;;;;;;4.95;3.55;;;;;;;;;;5013782;28;20085;-50
2021/07/27 13:48:15;;;;;;;4.63;3.60;;;;;;;;;;5012495;28;20048;-51
2021/07/27 13:50:42;;;;;;;4.07;3.45;;;;;;;;;;5013493;28;20521;-49
2021/07/27 13:53:09;;;;;;;4.68;3.47;;;;;;;;;;5013295;28;20049;-52
2021/07/27 13:55:36;;;;;;;5.05;3.60;;;;;;;;;;5013110;28;20116;-48
2021/07/27 13:58:02;;;;;;;4.38;3.47;;;;;;;;;;5012548;28;20042;-49
2021/07/27 14:00:29;;;;;;;5.90;3.40;;;;;;;;;;5013371;28;20042;-49
2021/07/27 14:02:56;;;;;;;5.20;3.35;;;;;;;;;;5013026;28;20077;-53
2021/07/27 14:05:23;;;;;;;4.63;3.40;;;;;;;;;;5013115;28;20056;-50
2021/07/27 14:07:50;;;;;;;4.03;3.00;;;;;;;;;;5013352;28;20152;-50
2021/07/27 14:10:17;;;;;;;6.15;3.42;;;;;;;;;;5012196;28;20074;-50
2021/07/27 14:12:44;;;;;;;8.38;5.60;;;;;;;;;;5013201;28;20053;-49
2021/07/27 14:15:11;;;;;;;5.20;3.55;;;;;;;;;;5013036;28;20064;-52
2021/07/27 14:17:37;;;;;;;4.78;3.50;;;;;;;;;;5012535;28;20145;-50
2021/07/27 14:20:05;;;;;;;5.93;3.67;;;;;;;;;;5011943;28;20053;-50
2021/07/27 14:22:32;;;;;;;5.53;3.50;;;;;;;;;;5012689;28;20487;-49
2021/07/27 14:24:58;;;;;;;6.38;3.35;;;;;;;;;;5012602;28;20045;-53
2021/07/27 14:27:27;;;;;;;4.25;3.53;;;;;;;;;;5012981;28;20112;-50
2021/07/27 14:29:55;;;;;;;3.80;3.03;;;;;;;;;;5011643;28;20084;-53
2021/07/27 14:32:21;;;;;;;5.15;3.70;;;;;;;;;;5012485;28;20092;-50
2021/07/27 14:34:49;;;;;;;4.43;2.80;;;;;;;;;;5012630;28;20038;-52
2021/07/27 14:37:15;;;;;;;4.55;3.15;;;;;;;;;;5012469;28;20491;-52
2021/07/27 14:39:42;;;;;;;4.35;3.20;;;;;;;;;;5012008;28;20042;-47
2021/07/27 14:42:09;;;;;;;3.72;2.90;;;;;;;;;;5012425;28;20046;-50
2021/07/27 14:44:36;;;;;;;3.80;3.20;;;;;;;;;;5011398;28;20089;-50
2021/07/27 14:47:03;;;;;;;4.13;3.15;;;;;;;;;;5012363;28;20080;-49
2021/07/27 14:49:30;;;;;;;5.15;3.35;;;;;;;;;;5011559;28;20393;-53
2021/07/27 14:51:56;;;;;;;5.20;3.20;;;;;;;;;;5012314;28;20141;-50
2021/07/27 14:54:23;;;;;;;4.40;3.22;;;;;;;;;;5013069;28;20046;-53
2021/07/27 14:56:50;;;;;;;5.78;3.95;;;;;;;;;;5032267;28;20478;-47
2021/07/27 14:59:17;;;;;;;4.55;3.17;;;;;;;;;;5027705;28;20128;-50
2021/07/27 15:01:43;;;;;;;5.45;3.70;;;;;;;;;;5011969;28;20046;-52
2021/07/27 15:04:10;;;;;;;4.53;3.40;;;;;;;;;;5010946;28;20509;-52
2021/07/27 15:06:37;;;;;;;5.57;3.40;;;;;;;;;;5012098;28;20073;-49
2021/07/27 15:09:04;;;;;;;3.97;3.00;;;;;;;;;;5011470;28;20100;-52
2021/07/27 15:11:31;;;;;;;5.30;3.78;;;;;;;;;;5011975;28;20174;-49
2021/07/27 15:13:58;;;;;;;4.35;3.30;;;;;;;;;;5012071;28;20120;-49
2021/07/27 15:16:25;;;;;;;4.68;3.33;;;;;;;;;;5011575;28;20077;-53